Time,TemperatureF,DewpointF,PressureIn,WindDirection,WindDirectionDegrees,WindSpeedMPH,WindSpeedGustMPH,Humidity,HourlyPrecipIn,Conditions,Clouds,dailyrainin,SolarRadiationWatts/m^2,SoftwareType,DateUTC
2013-03-07 00:00:00,25.0,19.4,30.35,NW,305,0.0,0.0,79,0.00,,,0.12,0,Wunderground v.1.15,2013-03-07 06:00:00,
2013-03-07 00:05:00,24.6,19.0,30.35,NW,305,0.0,0.0,79,0.00,,,0.12,0,Wunderground v.1.15,2013-03-07 06:05:00,
2013-03-07 00:10:00,24.0,18.1,30.35,NW,305,0.0,0.0,78,0.00,,,0.00,0,Wunderground v.1.15,2013-03-07 06:10:00,
2013-03-07 00:15:00,23.4,17.8,30.36,NW,305,0.0,0.0,79,0.00,,,0.00,0,Wunderground v.1.15,2013-03-07 06:15:00,
2013-03-07 00:20:00,23.0,17.7,30.36,NW,305,0.0,0.0,80,0.00,,,0.00,0,Wunderground v.1.15,2013-03-07 06:20:00,
2013-03-07 00:25:00,22.7,17.5,30.36,NW,305,0.0,0.0,80,0.00,,,0.00,0,Wunderground v.1.15,2013-03-07 06:25:00,
2013-03-07 00:30:00,22.4,17.5,30.36,NW,305,0.0,0.0,81,0.00,,,0.00,0,Wunderground v.1.15,2013-03-07 06:30:00,
2013-03-07 00:35:00,22.1,17.2,30.36,NW,305,0.0,0.0,81,0.00,,,0.00,0,Wunderground v.1.15,2013-03-07 06:35:00,
2013-03-07 00:40:00,22.0,17.3,30.36,NW,305,0.0,0.0,82,0.00,,,0.00,0,Wunderground v.1.15,2013-03-07 06:40:00,
2013-03-07 00:45:00,21.8,17.2,30.37,NW,305,1.0,3.0,82,0.00,,,0.00,0,Wunderground v.1.15,2013-03-07 06:45:00,
2013-03-07 00:50:00,21.7,17.1,30.37,NW,305,0.0,1.0,82,0.00,,,0.00,0,Wunderground v.1.15,2013-03-07 06:50:00,
2013-03-07 00:55:00,21.6,17.0,30.37,NW,305,0.0,1.0,82,0.00,,,0.00,0,Wunderground v.1.15,2013-03-07 06:55:00,
2013-03-07 01:00:00,21.3,16.7,30.37,NW,305,0.0,0.0,82,0.00,,,0.00,0,Wunderground v.1.15,2013-03-07 07:00:00,
2013-03-07 01:05:00,21.0,16.4,30.37,NW,305,0.0,0.0,82,0.00,,,0.00,0,Wunderground v.1.15,2013-03-07 07:05:00,
2013-03-07 01:10:00,20.6,16.0,30.38,NW,305,0.0,0.0,82,0.00,,,0.00,0,Wunderground v.1.15,2013-03-07 07:10:00,
2013-03-07 01:15:00,20.0,15.1,30.38,NW,305,0.0,0.0,81,0.00,,,0.00,0,Wunderground v.1.15,2013-03-07 07:15:00,
2013-03-07 01:20:00,19.6,15.0,30.38,NW,305,0.0,0.0,82,0.00,,,0.00,0,Wunderground v.1.15,2013-03-07 07:20:00,
2013-03-07 01:25:00,19.1,14.5,30.38,NW,305,0.0,0.0,82,0.00,,,0.00,0,Wunderground v.1.15,2013-03-07 07:25:00,
2013-03-07 01:30:00,18.8,14.5,30.38,NW,305,0.0,0.0,83,0.00,,,0.00,0,Wunderground v.1.15,2013-03-07 07:30:00,
2013-03-07 01:35:00,18.4,14.1,30.38,NW,305,0.0,0.0,83,0.00,,,0.00,0,Wunderground v.1.15,2013-03-07 07:35:00,
2013-03-07 01:40:00,18.0,13.7,30.38,NW,305,0.0,0.0,83,0.00,,,0.00,0,Wunderground v.1.15,2013-03-07 07:40:00,
2013-03-07 01:45:00,17.5,13.2,30.38,NW,305,0.0,0.0,83,0.00,,,0.00,0,Wunderground v.1.15,2013-03-07 07:45:00,
2013-03-07 01:50:00,17.0,12.7,30.38,NW,305,0.0,0.0,83,0.00,,,0.00,0,Wunderground v.1.15,2013-03-07 07:50:00,
2013-03-07 01:55:00,16.6,12.3,30.38,NW,305,0.0,0.0,83,0.00,,,0.00,0,Wunderground v.1.15,2013-03-07 07:55:00,
2013-03-07 02:00:00,16.2,12.2,30.38,NW,305,0.0,0.0,84,0.00,,,0.00,0,Wunderground v.1.15,2013-03-07 08:00:00,
2013-03-07 02:05:00,15.7,11.7,30.38,NW,305,0.0,0.0,84,0.00,,,0.00,0,Wunderground v.1.15,2013-03-07 08:05:00,
2013-03-07 02:10:00,15.3,11.1,30.38,NW,305,0.0,0.0,83,0.00,,,0.00,0,Wunderground v.1.15,2013-03-07 08:10:00,
2013-03-07 02:15:00,14.9,10.9,30.38,NW,305,0.0,0.0,84,0.00,,,0.00,0,Wunderground v.1.15,2013-03-07 08:15:00,
2013-03-07 02:20:00,14.6,10.9,30.38,NW,305,0.0,0.0,85,0.00,,,0.00,0,Wunderground v.1.15,2013-03-07 08:20:00,
2013-03-07 02:25:00,14.4,11.0,30.38,NW,305,0.0,0.0,86,0.00,,,0.00,0,Wunderground v.1.15,2013-03-07 08:25:00,
2013-03-07 02:30:00,14.2,10.8,30.38,NW,305,0.0,0.0,86,0.00,,,0.00,0,Wunderground v.1.15,2013-03-07 08:30:00,
2013-03-07 02:35:00,13.9,10.5,30.39,NW,305,0.0,0.0,86,0.00,,,0.00,0,Wunderground v.1.15,2013-03-07 08:35:00,
2013-03-07 02:40:00,13.6,10.2,30.39,NW,305,0.0,0.0,86,0.00,,,0.00,0,Wunderground v.1.15,2013-03-07 08:40:00,
2013-03-07 02:45:00,13.2,9.5,30.39,NW,305,0.0,0.0,85,0.00,,,0.00,0,Wunderground v.1.15,2013-03-07 08:45:00,
2013-03-07 02:50:00,12.9,9.5,30.39,NW,305,0.0,0.0,86,0.00,,,0.00,0,Wunderground v.1.15,2013-03-07 08:50:00,
2013-03-07 02:55:00,12.6,9.2,30.39,NW,305,0.0,0.0,86,0.00,,,0.00,0,Wunderground v.1.15,2013-03-07 08:55:00,
2013-03-07 03:00:00,12.2,8.8,30.39,NW,305,0.0,0.0,86,0.00,,,0.00,0,Wunderground v.1.15,2013-03-07 09:00:00,
2013-03-07 03:05:00,11.9,8.5,30.39,NW,305,0.0,0.0,86,0.00,,,0.00,0,Wunderground v.1.15,2013-03-07 09:05:00,
2013-03-07 03:10:00,11.5,8.1,30.39,NW,305,0.0,0.0,86,0.00,,,0.00,0,Wunderground v.1.15,2013-03-07 09:10:00,
2013-03-07 03:15:00,11.3,7.9,30.39,NW,305,0.0,0.0,86,0.00,,,0.00,0,Wunderground v.1.15,2013-03-07 09:15:00,
2013-03-07 03:20:00,11.2,8.1,30.39,NW,305,0.0,0.0,87,0.00,,,0.00,0,Wunderground v.1.15,2013-03-07 09:20:00,
2013-03-07 03:25:00,11.2,8.1,30.39,NW,305,0.0,0.0,87,0.00,,,0.00,0,Wunderground v.1.15,2013-03-07 09:25:00,
2013-03-07 03:30:00,11.1,8.0,30.38,NW,305,0.0,0.0,87,0.00,,,0.00,0,Wunderground v.1.15,2013-03-07 09:30:00,
2013-03-07 03:35:00,11.0,7.9,30.38,NW,305,0.0,0.0,87,0.00,,,0.00,0,Wunderground v.1.15,2013-03-07 09:35:00,
2013-03-07 03:41:00,10.6,7.2,30.39,NW,305,0.0,0.0,86,0.00,,,0.00,0,Wunderground v.1.15,2013-03-07 09:41:00,
2013-03-07 03:46:00,10.1,6.7,30.38,NW,305,0.0,0.0,86,0.00,,,0.00,0,Wunderground v.1.15,2013-03-07 09:46:00,
2013-03-07 03:51:00,9.6,6.3,30.39,NW,305,0.0,0.0,86,0.00,,,0.00,0,Wunderground v.1.15,2013-03-07 09:51:00,
2013-03-07 03:56:00,9.2,5.9,30.38,NW,305,0.0,0.0,86,0.00,,,0.00,0,Wunderground v.1.15,2013-03-07 09:56:00,
2013-03-07 04:01:00,9.0,5.7,30.38,NW,305,0.0,0.0,86,0.00,,,0.00,0,Wunderground v.1.15,2013-03-07 10:01:00,
2013-03-07 04:06:00,8.8,5.7,30.38,NW,305,0.0,0.0,87,0.00,,,0.00,0,Wunderground v.1.15,2013-03-07 10:06:00,
2013-03-07 04:11:00,8.7,5.6,30.38,NW,305,0.0,0.0,87,0.00,,,0.00,0,Wunderground v.1.15,2013-03-07 10:11:00,
2013-03-07 04:16:00,8.9,6.1,30.38,NW,305,0.0,0.0,88,0.00,,,0.00,0,Wunderground v.1.15,2013-03-07 10:16:00,
2013-03-07 04:21:00,9.1,6.3,30.38,NW,305,0.0,0.0,88,0.00,,,0.00,0,Wunderground v.1.15,2013-03-07 10:21:00,
2013-03-07 04:26:00,9.3,6.5,30.38,NW,305,0.0,0.0,88,0.00,,,0.00,0,Wunderground v.1.15,2013-03-07 10:26:00,
2013-03-07 04:31:00,9.2,6.4,30.38,NW,305,0.0,0.0,88,0.00,,,0.00,0,Wunderground v.1.15,2013-03-07 10:31:00,
2013-03-07 04:36:00,9.3,6.5,30.39,NW,305,0.0,0.0,88,0.00,,,0.00,0,Wunderground v.1.15,2013-03-07 10:36:00,
2013-03-07 04:41:00,9.2,6.4,30.39,NW,305,0.0,0.0,88,0.00,,,0.00,0,Wunderground v.1.15,2013-03-07 10:41:00,
2013-03-07 04:46:00,9.1,6.3,30.39,NW,305,0.0,0.0,88,0.00,,,0.00,0,Wunderground v.1.15,2013-03-07 10:46:00,
2013-03-07 04:51:00,8.9,5.8,30.39,NW,305,0.0,0.0,87,0.00,,,0.00,0,Wunderground v.1.15,2013-03-07 10:51:00,
2013-03-07 04:56:00,8.7,5.6,30.40,NW,305,0.0,0.0,87,0.00,,,0.00,0,Wunderground v.1.15,2013-03-07 10:56:00,
2013-03-07 05:01:00,8.5,5.4,30.40,NW,305,0.0,0.0,87,0.00,,,0.00,0,Wunderground v.1.15,2013-03-07 11:01:00,
2013-03-07 05:06:00,8.5,5.4,30.40,NW,305,0.0,0.0,87,0.00,,,0.00,0,Wunderground v.1.15,2013-03-07 11:06:00,
2013-03-07 05:11:00,8.5,5.7,30.40,NW,305,0.0,0.0,88,0.00,,,0.00,0,Wunderground v.1.15,2013-03-07 11:11:00,
2013-03-07 05:16:00,8.4,5.6,30.41,NW,305,0.0,0.0,88,0.00,,,0.00,0,Wunderground v.1.15,2013-03-07 11:16:00,
2013-03-07 05:21:00,8.2,5.1,30.41,NW,305,0.0,0.0,87,0.00,,,0.00,0,Wunderground v.1.15,2013-03-07 11:21:00,
2013-03-07 05:26:00,7.7,4.6,30.41,NW,305,0.0,0.0,87,0.00,,,0.00,0,Wunderground v.1.15,2013-03-07 11:26:00,
2013-03-07 05:31:00,7.2,3.9,30.41,NW,305,0.0,0.0,86,0.00,,,0.00,0,Wunderground v.1.15,2013-03-07 11:31:00,
2013-03-07 05:36:00,6.8,3.5,30.41,NW,305,0.0,0.0,86,0.00,,,0.00,0,Wunderground v.1.15,2013-03-07 11:36:00,
2013-03-07 05:41:00,6.4,3.1,30.41,NW,305,0.0,0.0,86,0.00,,,0.00,0,Wunderground v.1.15,2013-03-07 11:41:00,
2013-03-07 05:46:00,6.0,2.7,30.40,NW,305,0.0,0.0,86,0.00,,,0.00,0,Wunderground v.1.15,2013-03-07 11:46:00,
2013-03-07 05:51:00,5.8,2.5,30.41,NW,305,0.0,0.0,86,0.00,,,0.00,0,Wunderground v.1.15,2013-03-07 11:51:00,
2013-03-07 05:56:00,5.7,2.4,30.40,NW,305,0.0,0.0,86,0.00,,,0.00,0,Wunderground v.1.15,2013-03-07 11:56:00,
2013-03-07 06:01:00,5.7,2.7,30.41,NW,305,0.0,0.0,87,0.00,,,0.00,0,Wunderground v.1.15,2013-03-07 12:01:00,
2013-03-07 06:06:00,5.9,3.1,30.41,NW,305,0.0,0.0,88,0.00,,,0.00,0,Wunderground v.1.15,2013-03-07 12:06:00,
2013-03-07 06:11:00,6.1,3.3,30.41,NW,305,0.0,0.0,88,0.00,,,0.00,0,Wunderground v.1.15,2013-03-07 12:11:00,
2013-03-07 06:16:00,6.0,3.0,30.41,NW,305,0.0,0.0,87,0.00,,,0.00,0,Wunderground v.1.15,2013-03-07 12:16:00,
2013-03-07 06:21:00,6.0,3.0,30.41,NW,305,0.0,0.0,87,0.00,,,0.00,5,Wunderground v.1.15,2013-03-07 12:21:00,
2013-03-07 06:26:00,6.1,3.3,30.41,NW,305,0.0,0.0,88,0.00,,,0.00,7,Wunderground v.1.15,2013-03-07 12:26:00,
2013-03-07 06:31:00,6.1,3.3,30.41,NW,305,0.0,0.0,88,0.00,,,0.00,11,Wunderground v.1.15,2013-03-07 12:31:00,
2013-03-07 06:36:00,6.2,3.4,30.41,NW,305,0.0,0.0,88,0.00,,,0.00,14,Wunderground v.1.15,2013-03-07 12:36:00,
2013-03-07 06:41:00,6.4,3.6,30.41,NW,305,0.0,0.0,88,0.00,,,0.00,19,Wunderground v.1.15,2013-03-07 12:41:00,
2013-03-07 06:46:00,6.5,3.7,30.41,NW,305,0.0,0.0,88,0.00,,,0.00,25,Wunderground v.1.15,2013-03-07 12:46:00,
2013-03-07 06:51:00,6.5,3.7,30.42,NW,305,0.0,0.0,88,0.00,,,0.00,35,Wunderground v.1.15,2013-03-07 12:51:00,
2013-03-07 06:56:00,6.7,3.9,30.42,NW,305,0.0,0.0,88,0.00,,,0.00,49,Wunderground v.1.15,2013-03-07 12:56:00,
2013-03-07 07:01:00,7.0,4.2,30.43,NW,305,0.0,0.0,88,0.00,,,0.00,63,Wunderground v.1.15,2013-03-07 13:01:00,
2013-03-07 07:06:00,7.6,5.0,30.43,NW,305,0.0,0.0,89,0.00,,,0.00,81,Wunderground v.1.15,2013-03-07 13:06:00,
2013-03-07 07:11:00,8.2,5.6,30.43,NW,305,0.0,0.0,89,0.00,,,0.00,100,Wunderground v.1.15,2013-03-07 13:11:00,
2013-03-07 07:16:00,8.9,6.6,30.43,NW,305,0.0,0.0,90,0.00,,,0.00,125,Wunderground v.1.15,2013-03-07 13:16:00,
2013-03-07 07:21:00,9.4,7.1,30.43,NW,305,0.0,0.0,90,0.00,,,0.00,144,Wunderground v.1.15,2013-03-07 13:21:00,
2013-03-07 07:26:00,10.0,7.7,30.43,NW,305,0.0,0.0,90,0.00,,,0.00,165,Wunderground v.1.15,2013-03-07 13:26:00,
2013-03-07 07:32:00,10.9,8.5,30.44,NW,305,0.0,0.0,90,0.00,,,0.00,186,Wunderground v.1.15,2013-03-07 13:32:00,
2013-03-07 07:37:00,11.5,9.1,30.44,NW,305,0.0,0.0,90,0.00,,,0.00,206,Wunderground v.1.15,2013-03-07 13:37:00,
2013-03-07 07:42:00,12.0,9.6,30.44,NW,305,0.0,0.0,90,0.00,,,0.00,227,Wunderground v.1.15,2013-03-07 13:42:00,
2013-03-07 07:47:00,12.8,10.4,30.44,NW,305,0.0,0.0,90,0.00,,,0.00,246,Wunderground v.1.15,2013-03-07 13:47:00,
2013-03-07 07:52:00,13.4,10.8,30.44,NW,305,0.0,0.0,89,0.00,,,0.00,267,Wunderground v.1.15,2013-03-07 13:52:00,
2013-03-07 07:57:00,14.1,11.5,30.45,NW,305,0.0,0.0,89,0.00,,,0.00,290,Wunderground v.1.15,2013-03-07 13:57:00,
2013-03-07 08:02:00,14.8,12.1,30.45,NW,305,0.0,0.0,89,0.00,,,0.00,315,Wunderground v.1.15,2013-03-07 14:02:00,
2013-03-07 08:07:00,15.8,13.1,30.45,NW,305,0.0,0.0,89,0.00,,,0.00,316,Wunderground v.1.15,2013-03-07 14:07:00,
2013-03-07 08:12:00,16.5,13.3,30.45,NW,305,0.0,0.0,87,0.00,,,0.00,309,Wunderground v.1.15,2013-03-07 14:12:00,
2013-03-07 08:17:00,16.2,12.2,30.45,NW,305,0.0,0.0,84,0.00,,,0.00,323,Wunderground v.1.15,2013-03-07 14:17:00,
2013-03-07 08:22:00,16.3,12.6,30.45,NW,305,0.0,0.0,85,0.00,,,0.00,339,Wunderground v.1.15,2013-03-07 14:22:00,
2013-03-07 08:27:00,16.8,13.1,30.45,NW,305,0.0,0.0,85,0.00,,,0.00,357,Wunderground v.1.15,2013-03-07 14:27:00,
2013-03-07 08:32:00,17.2,13.2,30.45,NW,305,0.0,0.0,84,0.00,,,0.00,376,Wunderground v.1.15,2013-03-07 14:32:00,
2013-03-07 08:37:00,17.2,12.9,30.45,NW,305,0.0,2.0,83,0.00,,,0.00,388,Wunderground v.1.15,2013-03-07 14:37:00,
2013-03-07 08:42:00,17.3,13.0,30.45,SSW,202,0.0,2.0,83,0.00,,,0.00,397,Wunderground v.1.15,2013-03-07 14:42:00,
2013-03-07 08:47:00,17.8,13.8,30.45,SSW,202,0.0,2.0,84,0.00,,,0.00,427,Wunderground v.1.15,2013-03-07 14:47:00,
2013-03-07 08:52:00,18.3,14.0,30.45,SSW,202,2.0,3.0,83,0.00,,,0.00,459,Wunderground v.1.15,2013-03-07 14:52:00,
2013-03-07 08:57:00,18.4,13.8,30.45,SSW,202,2.0,3.0,82,0.00,,,0.00,439,Wunderground v.1.15,2013-03-07 14:57:00,
2013-03-07 09:02:00,18.8,14.5,30.45,SSW,202,0.0,2.0,83,0.00,,,0.00,461,Wunderground v.1.15,2013-03-07 15:02:00,
2013-03-07 09:07:00,19.4,14.8,30.45,SSW,202,1.0,2.0,82,0.00,,,0.00,497,Wunderground v.1.15,2013-03-07 15:07:00,
2013-03-07 09:12:00,19.8,14.9,30.45,SSW,202,0.0,2.0,81,0.00,,,0.00,469,Wunderground v.1.15,2013-03-07 15:12:00,
2013-03-07 09:17:00,20.4,15.5,30.45,SSW,202,0.0,2.0,81,0.00,,,0.00,471,Wunderground v.1.15,2013-03-07 15:17:00,
2013-03-07 09:22:00,21.2,16.0,30.45,SSW,202,0.0,0.0,80,0.00,,,0.00,504,Wunderground v.1.15,2013-03-07 15:22:00,
2013-03-07 09:27:00,21.7,15.9,30.45,SSW,202,0.0,1.0,78,0.00,,,0.01,548,Wunderground v.1.15,2013-03-07 15:27:00,
2013-03-07 09:32:00,22.0,16.2,30.45,SSW,202,0.0,1.0,78,0.00,,,0.01,526,Wunderground v.1.15,2013-03-07 15:32:00,
2013-03-07 09:37:00,22.5,16.4,30.45,SSW,202,1.0,1.0,77,0.00,,,0.01,582,Wunderground v.1.15,2013-03-07 15:37:00,
2013-03-07 09:42:00,22.8,16.4,30.45,SSW,202,2.0,3.0,76,0.00,,,0.01,589,Wunderground v.1.15,2013-03-07 15:42:00,
2013-03-07 09:47:00,22.7,16.0,30.45,SSW,202,2.0,3.0,75,0.00,,,0.01,592,Wunderground v.1.15,2013-03-07 15:47:00,
2013-03-07 09:52:00,22.8,16.1,30.44,SSW,202,1.0,2.0,75,0.00,,,0.01,610,Wunderground v.1.15,2013-03-07 15:52:00,
2013-03-07 09:57:00,23.0,16.3,30.44,SSW,202,0.0,2.0,75,0.00,,,0.01,633,Wunderground v.1.15,2013-03-07 15:57:00,
2013-03-07 10:02:00,23.7,16.9,30.45,SSW,202,0.0,1.0,75,0.00,,,0.01,599,Wunderground v.1.15,2013-03-07 16:02:00,
2013-03-07 10:07:00,24.8,17.7,30.45,SSW,202,0.0,1.0,74,0.00,,,0.01,640,Wunderground v.1.15,2013-03-07 16:07:00,
2013-03-07 10:12:00,25.6,18.1,30.45,SSW,202,0.0,0.0,73,0.00,,,0.01,649,Wunderground v.1.15,2013-03-07 16:12:00,
2013-03-07 10:17:00,26.5,18.4,30.45,SSW,202,0.0,0.0,71,0.00,,,0.02,657,Wunderground v.1.15,2013-03-07 16:17:00,
2013-03-07 10:22:00,26.7,17.9,30.44,SSW,202,0.0,2.0,69,0.00,,,0.02,668,Wunderground v.1.15,2013-03-07 16:22:00,
2013-03-07 10:27:00,27.1,18.3,30.45,SSW,202,0.0,2.0,69,0.00,,,0.02,684,Wunderground v.1.15,2013-03-07 16:27:00,
2013-03-07 10:32:00,27.7,18.5,30.45,SSW,202,0.0,0.0,68,0.00,,,0.02,684,Wunderground v.1.15,2013-03-07 16:32:00,
2013-03-07 10:37:00,28.1,18.5,30.45,SSW,202,0.0,0.0,67,0.00,,,0.02,700,Wunderground v.1.15,2013-03-07 16:37:00,
2013-03-07 10:42:00,28.0,18.1,30.45,SSW,202,0.0,1.0,66,0.00,,,0.03,701,Wunderground v.1.15,2013-03-07 16:42:00,
2013-03-07 10:47:00,27.6,18.1,30.45,SSW,202,2.0,2.0,67,0.00,,,0.03,707,Wunderground v.1.15,2013-03-07 16:47:00,
2013-03-07 10:52:00,27.2,18.0,30.45,SSW,202,1.0,4.0,68,0.00,,,0.03,714,Wunderground v.1.15,2013-03-07 16:52:00,
2013-03-07 10:57:00,26.9,18.1,30.45,SSW,202,0.0,4.0,69,0.00,,,0.04,742,Wunderground v.1.15,2013-03-07 16:57:00,
2013-03-07 11:02:00,26.9,17.7,30.45,SSW,202,2.0,4.0,68,0.00,,,0.04,661,Wunderground v.1.15,2013-03-07 17:02:00,
2013-03-07 11:08:00,26.4,17.6,30.45,NE,39,5.0,5.0,69,0.00,,,0.04,657,Wunderground v.1.15,2013-03-07 17:08:00,
2013-03-07 11:13:00,26.0,17.6,30.45,NE,39,3.0,5.0,70,0.00,,,0.04,719,Wunderground v.1.15,2013-03-07 17:13:00,
2013-03-07 11:18:00,26.1,18.3,30.46,NNW,341,3.0,5.0,72,0.00,,,0.04,733,Wunderground v.1.15,2013-03-07 17:18:00,
2013-03-07 11:23:00,26.3,17.8,30.45,NNE,16,4.0,6.0,70,0.00,,,0.04,738,Wunderground v.1.15,2013-03-07 17:23:00,
2013-03-07 11:28:00,26.4,18.3,30.45,ENE,58,5.0,6.0,71,0.00,,,0.04,742,Wunderground v.1.15,2013-03-07 17:28:00,
2013-03-07 11:33:00,26.3,18.2,30.45,ENE,58,3.0,4.0,71,0.00,,,0.04,744,Wunderground v.1.15,2013-03-07 17:33:00,
2013-03-07 11:38:00,26.2,18.1,30.45,ENE,58,2.0,4.0,71,0.00,,,0.04,745,Wunderground v.1.15,2013-03-07 17:38:00,
2013-03-07 11:43:00,26.5,18.7,30.45,ENE,58,3.0,3.0,72,0.00,,,0.04,747,Wunderground v.1.15,2013-03-07 17:43:00,
2013-03-07 11:48:00,26.9,19.1,30.45,ENE,58,0.0,3.0,72,0.00,,,0.04,749,Wunderground v.1.15,2013-03-07 17:48:00,
2013-03-07 11:53:00,27.5,19.3,30.44,ENE,58,0.0,2.0,71,0.00,,,0.05,752,Wunderground v.1.15,2013-03-07 17:53:00,
2013-03-07 11:58:00,28.3,20.1,30.44,ENE,58,0.0,2.0,71,0.00,,,0.05,752,Wunderground v.1.15,2013-03-07 17:58:00,
2013-03-07 12:03:00,29.3,20.4,30.45,ENE,58,0.0,1.0,69,0.00,,,0.05,756,Wunderground v.1.15,2013-03-07 18:03:00,
2013-03-07 12:08:00,29.8,20.9,30.45,ENE,58,1.0,2.0,69,0.00,,,0.05,756,Wunderground v.1.15,2013-03-07 18:08:00,
2013-03-07 12:13:00,29.8,20.2,30.44,ENE,58,3.0,3.0,67,0.00,,,0.05,765,Wunderground v.1.15,2013-03-07 18:13:00,
2013-03-07 12:18:00,29.9,20.3,30.44,ENE,58,1.0,3.0,67,0.00,,,0.05,766,Wunderground v.1.15,2013-03-07 18:18:00,
2013-03-07 12:23:00,30.2,20.6,30.44,ENE,58,1.0,2.0,67,0.00,,,0.06,664,Wunderground v.1.15,2013-03-07 18:23:00,
2013-03-07 12:28:00,30.6,20.9,30.44,ENE,58,0.0,2.0,67,0.00,,,0.06,698,Wunderground v.1.15,2013-03-07 18:28:00,
2013-03-07 12:33:00,31.7,21.6,30.44,ENE,58,0.0,1.0,66,0.00,,,0.06,731,Wunderground v.1.15,2013-03-07 18:33:00,
2013-03-07 12:38:00,32.4,22.3,30.44,ENE,58,0.0,1.0,66,0.00,,,0.06,770,Wunderground v.1.15,2013-03-07 18:38:00,
2013-03-07 12:43:00,33.5,22.6,30.44,ENE,58,0.0,2.0,64,0.00,,,0.06,766,Wunderground v.1.15,2013-03-07 18:43:00,
2013-03-07 12:48:00,34.6,22.9,30.43,ENE,58,0.0,2.0,62,0.00,,,0.06,758,Wunderground v.1.15,2013-03-07 18:48:00,
2013-03-07 12:53:00,35.5,23.0,30.43,WNW,295,0.0,4.0,60,0.00,,,0.06,754,Wunderground v.1.15,2013-03-07 18:53:00,
2013-03-07 12:58:00,35.5,22.6,30.42,WSW,248,0.0,4.0,59,0.00,,,0.06,733,Wunderground v.1.15,2013-03-07 18:58:00,
2013-03-07 13:03:00,35.5,22.2,30.42,WSW,248,0.0,2.0,58,0.00,,,0.06,737,Wunderground v.1.15,2013-03-07 19:03:00,
2013-03-07 13:08:00,35.4,22.1,30.42,WSW,248,0.0,3.0,58,0.00,,,0.06,758,Wunderground v.1.15,2013-03-07 19:08:00,
2013-03-07 13:13:00,35.8,22.0,30.42,WSW,248,0.0,1.0,57,0.00,,,0.06,761,Wunderground v.1.15,2013-03-07 19:13:00,
2013-03-07 13:18:00,35.5,20.9,30.42,NW,324,0.0,3.0,55,0.00,,,0.06,754,Wunderground v.1.15,2013-03-07 19:18:00,
2013-03-07 13:23:00,34.4,20.7,30.42,NW,324,0.0,1.0,57,0.00,,,0.06,715,Wunderground v.1.15,2013-03-07 19:23:00,
2013-03-07 13:28:00,33.4,19.8,30.42,ESE,121,2.0,7.0,57,0.00,,,0.06,636,Wunderground v.1.15,2013-03-07 19:28:00,
2013-03-07 13:34:00,33.0,21.4,30.43,ESE,121,0.0,2.0,62,0.00,,,0.07,656,Wunderground v.1.15,2013-03-07 19:34:00,
2013-03-07 13:39:00,33.5,21.5,30.43,West,269,1.0,4.0,61,0.00,,,0.07,664,Wunderground v.1.15,2013-03-07 19:39:00,
2013-03-07 13:44:00,33.9,21.5,30.43,WNW,286,4.0,5.0,60,0.00,,,0.07,615,Wunderground v.1.15,2013-03-07 19:44:00,
2013-03-07 13:49:00,34.2,21.4,30.43,WNW,294,0.0,6.0,59,0.00,,,0.07,598,Wunderground v.1.15,2013-03-07 19:49:00,
2013-03-07 13:54:00,34.8,21.5,30.42,WNW,290,1.0,5.0,58,0.00,,,0.07,591,Wunderground v.1.15,2013-03-07 19:54:00,
2013-03-07 13:59:00,34.7,21.8,30.43,North,355,4.0,5.0,59,0.00,,,0.07,670,Wunderground v.1.15,2013-03-07 19:59:00,
2013-03-07 14:04:00,33.8,21.0,30.43,North,5,0.0,3.0,59,0.00,,,0.07,652,Wunderground v.1.15,2013-03-07 20:04:00,
2013-03-07 14:09:00,34.1,22.0,30.43,NNW,336,4.0,4.0,61,0.00,,,0.07,524,Wunderground v.1.15,2013-03-07 20:09:00,
2013-03-07 14:14:00,34.0,21.2,30.42,NNW,336,0.0,4.0,59,0.00,,,0.07,455,Wunderground v.1.15,2013-03-07 20:14:00,
2013-03-07 14:19:00,33.3,21.3,30.42,NNE,18,4.0,4.0,61,0.00,,,0.07,441,Wunderground v.1.15,2013-03-07 20:19:00,
2013-03-07 14:24:00,32.7,20.3,30.42,NNE,18,2.0,4.0,60,0.00,,,0.07,524,Wunderground v.1.15,2013-03-07 20:24:00,
2013-03-07 14:29:00,32.2,20.2,30.42,NNE,20,3.0,4.0,61,0.00,,,0.07,591,Wunderground v.1.15,2013-03-07 20:29:00,
2013-03-07 14:34:00,32.0,20.1,30.43,NE,49,3.0,5.0,61,0.00,,,0.07,633,Wunderground v.1.15,2013-03-07 20:34:00,
2013-03-07 14:39:00,31.8,20.3,30.43,NE,40,0.0,5.0,62,0.00,,,0.07,591,Wunderground v.1.15,2013-03-07 20:39:00,
2013-03-07 14:44:00,31.9,20.3,30.43,NE,38,4.0,5.0,62,0.00,,,0.07,575,Wunderground v.1.15,2013-03-07 20:44:00,
2013-03-07 14:49:00,32.0,20.1,30.43,NE,37,4.0,5.0,61,0.00,,,0.07,545,Wunderground v.1.15,2013-03-07 20:49:00,
2013-03-07 14:54:00,32.1,20.5,30.43,NE,37,4.0,4.0,62,0.00,,,0.07,536,Wunderground v.1.15,2013-03-07 20:54:00,
2013-03-07 14:59:00,32.3,20.3,30.43,NE,37,2.0,4.0,61,0.00,,,0.07,489,Wunderground v.1.15,2013-03-07 20:59:00,
2013-03-07 15:05:00,32.1,19.8,30.43,NE,37,3.0,4.0,60,0.00,,,0.07,468,Wunderground v.1.15,2013-03-07 21:05:00,
2013-03-07 15:10:00,32.0,19.7,30.42,NE,37,1.0,2.0,60,0.00,,,0.07,489,Wunderground v.1.15,2013-03-07 21:10:00,
2013-03-07 15:15:00,32.0,20.1,30.41,NE,37,0.0,3.0,61,0.00,,,0.07,455,Wunderground v.1.15,2013-03-07 21:15:00,
2013-03-07 15:20:00,32.0,20.4,30.42,NE,37,2.0,2.0,62,0.00,,,0.07,457,Wunderground v.1.15,2013-03-07 21:20:00,
2013-03-07 15:25:00,32.0,20.1,30.42,NE,37,0.0,3.0,61,0.00,,,0.07,424,Wunderground v.1.15,2013-03-07 21:25:00,
2013-03-07 15:30:00,32.0,20.4,30.41,NE,37,2.0,3.0,62,0.00,,,0.07,366,Wunderground v.1.15,2013-03-07 21:30:00,
2013-03-07 15:35:00,32.0,20.4,30.41,NE,37,3.0,3.0,62,0.00,,,0.07,257,Wunderground v.1.15,2013-03-07 21:35:00,
2013-03-07 15:40:00,31.8,19.9,30.41,NE,37,1.0,2.0,61,0.00,,,0.07,281,Wunderground v.1.15,2013-03-07 21:40:00,
2013-03-07 15:45:00,31.8,19.9,30.42,NE,37,2.0,3.0,61,0.00,,,0.07,373,Wunderground v.1.15,2013-03-07 21:45:00,
2013-03-07 15:50:00,31.9,20.0,30.42,NE,37,3.0,4.0,61,0.00,,,0.07,315,Wunderground v.1.15,2013-03-07 21:50:00,
2013-03-07 15:55:00,31.9,20.0,30.42,NE,37,2.0,4.0,61,0.00,,,0.07,364,Wunderground v.1.15,2013-03-07 21:55:00,
2013-03-07 16:00:00,31.8,19.9,30.42,NE,37,3.0,3.0,61,0.00,,,0.07,272,Wunderground v.1.15,2013-03-07 22:00:00,
2013-03-07 16:05:00,31.6,20.1,30.41,NE,37,3.0,4.0,62,0.00,,,0.07,308,Wunderground v.1.15,2013-03-07 22:05:00,
2013-03-07 16:10:00,31.5,20.0,30.41,NE,37,3.0,3.0,62,0.00,,,0.07,274,Wunderground v.1.15,2013-03-07 22:10:00,
2013-03-07 16:15:00,31.4,19.5,30.42,NE,37,3.0,5.0,61,0.00,,,0.07,232,Wunderground v.1.15,2013-03-07 22:15:00,
2013-03-07 16:20:00,31.4,19.5,30.41,NE,37,4.0,4.0,61,0.00,,,0.07,211,Wunderground v.1.15,2013-03-07 22:20:00,
2013-03-07 16:25:00,31.4,19.5,30.41,NE,37,4.0,5.0,61,0.00,,,0.07,230,Wunderground v.1.15,2013-03-07 22:25:00,
2013-03-07 16:30:00,31.3,19.4,30.41,NE,37,2.0,4.0,61,0.00,,,0.07,155,Wunderground v.1.15,2013-03-07 22:30:00,
2013-03-07 16:35:00,31.3,19.4,30.42,NE,37,2.0,4.0,61,0.00,,,0.07,88,Wunderground v.1.15,2013-03-07 22:35:00,
2013-03-07 16:40:00,31.2,19.3,30.42,NE,37,2.0,3.0,61,0.00,,,0.07,86,Wunderground v.1.15,2013-03-07 22:40:00,
2013-03-07 16:45:00,31.1,19.6,30.42,NE,37,3.0,3.0,62,0.00,,,0.07,83,Wunderground v.1.15,2013-03-07 22:45:00,
2013-03-07 16:50:00,31.1,19.6,30.42,NE,37,4.0,4.0,62,0.00,,,0.07,84,Wunderground v.1.15,2013-03-07 22:50:00,
2013-03-07 16:55:00,31.0,19.5,30.42,NE,37,3.0,4.0,62,0.00,,,0.07,67,Wunderground v.1.15,2013-03-07 22:55:00,
2013-03-07 17:00:00,30.9,19.8,30.42,NE,37,4.0,4.0,63,0.00,,,0.07,67,Wunderground v.1.15,2013-03-07 23:00:00,
2013-03-07 17:05:00,30.8,19.7,30.42,NE,37,3.0,5.0,63,0.00,,,0.07,54,Wunderground v.1.15,2013-03-07 23:05:00,
2013-03-07 17:10:00,30.5,19.8,30.42,ESE,107,3.0,5.0,64,0.00,,,0.07,47,Wunderground v.1.15,2013-03-07 23:10:00,
2013-03-07 17:15:00,30.4,19.7,30.42,ESE,107,5.0,8.0,64,0.00,,,0.07,37,Wunderground v.1.15,2013-03-07 23:15:00,
2013-03-07 17:20:00,30.3,19.9,30.42,ESE,113,5.0,7.0,65,0.00,,,0.07,28,Wunderground v.1.15,2013-03-07 23:20:00,
2013-03-07 17:25:00,30.1,19.7,30.43,ESE,113,5.0,7.0,65,0.00,,,0.07,23,Wunderground v.1.15,2013-03-07 23:25:00,
2013-03-07 17:30:00,29.9,19.6,30.43,ESE,107,5.0,7.0,65,0.00,,,0.07,18,Wunderground v.1.15,2013-03-07 23:30:00,
2013-03-07 17:35:00,29.7,19.4,30.43,ESE,108,4.0,7.0,65,0.00,,,0.07,14,Wunderground v.1.15,2013-03-07 23:35:00,
2013-03-07 17:40:00,29.4,19.1,30.44,ESE,108,3.0,5.0,65,0.00,,,0.07,11,Wunderground v.1.15,2013-03-07 23:40:00,
2013-03-07 17:46:00,29.0,19.1,30.44,ESE,108,5.0,7.0,66,0.00,,,0.07,7,Wunderground v.1.15,2013-03-07 23:46:00,
2013-03-07 17:51:00,28.8,18.9,30.44,ESE,108,4.0,5.0,66,0.00,,,0.07,0,Wunderground v.1.15,2013-03-07 23:51:00,
2013-03-07 17:56:00,28.5,18.6,30.44,ESE,108,3.0,5.0,66,0.00,,,0.07,0,Wunderground v.1.15,2013-03-07 23:56:00,
2013-03-07 18:01:00,28.3,18.4,30.44,ESE,108,5.0,5.0,66,0.00,,,0.07,0,Wunderground v.1.15,2013-03-08 00:01:00,
2013-03-07 18:06:00,28.2,18.3,30.44,ESE,108,3.0,5.0,66,0.00,,,0.07,0,Wunderground v.1.15,2013-03-08 00:06:00,
2013-03-07 18:11:00,28.0,18.1,30.44,ESE,108,4.0,7.0,66,0.00,,,0.07,0,Wunderground v.1.15,2013-03-08 00:11:00,
2013-03-07 18:16:00,27.8,18.3,30.43,ESE,108,4.0,7.0,67,0.00,,,0.07,0,Wunderground v.1.15,2013-03-08 00:16:00,
2013-03-07 18:21:00,27.7,18.2,30.43,ESE,108,3.0,4.0,67,0.00,,,0.07,0,Wunderground v.1.15,2013-03-08 00:21:00,
2013-03-07 18:26:00,27.5,18.3,30.43,ESE,108,5.0,5.0,68,0.00,,,0.07,0,Wunderground v.1.15,2013-03-08 00:26:00,
2013-03-07 18:31:00,27.5,18.3,30.43,ESE,108,4.0,5.0,68,0.00,,,0.07,0,Wunderground v.1.15,2013-03-08 00:31:00,
2013-03-07 18:36:00,27.4,18.2,30.43,ESE,108,3.0,5.0,68,0.00,,,0.07,0,Wunderground v.1.15,2013-03-08 00:36:00,
2013-03-07 18:41:00,27.2,18.0,30.44,ESE,108,2.0,5.0,68,0.00,,,0.07,0,Wunderground v.1.15,2013-03-08 00:41:00,
2013-03-07 18:46:00,27.0,17.8,30.44,ESE,108,2.0,5.0,68,0.00,,,0.07,0,Wunderground v.1.15,2013-03-08 00:46:00,
2013-03-07 18:51:00,26.8,18.0,30.44,ESE,108,3.0,3.0,69,0.00,,,0.07,0,Wunderground v.1.15,2013-03-08 00:51:00,
2013-03-07 18:56:00,26.7,17.9,30.44,ESE,108,1.0,3.0,69,0.00,,,0.07,0,Wunderground v.1.15,2013-03-08 00:56:00,
2013-03-07 19:01:00,26.7,17.9,30.44,ESE,108,2.0,3.0,69,0.00,,,0.07,0,Wunderground v.1.15,2013-03-08 01:01:00,
2013-03-07 19:06:00,26.6,18.1,30.45,ESE,108,2.0,3.0,70,0.00,,,0.07,0,Wunderground v.1.15,2013-03-08 01:06:00,
2013-03-07 19:11:00,26.5,18.0,30.45,ESE,108,1.0,2.0,70,0.00,,,0.07,0,Wunderground v.1.15,2013-03-08 01:11:00,
2013-03-07 19:16:00,26.5,18.0,30.45,ESE,108,2.0,2.0,70,0.00,,,0.07,0,Wunderground v.1.15,2013-03-08 01:16:00,
2013-03-07 19:21:00,26.5,18.0,30.45,ESE,108,1.0,3.0,70,0.00,,,0.07,0,Wunderground v.1.15,2013-03-08 01:21:00,
2013-03-07 19:26:00,26.2,17.7,30.44,ESE,108,2.0,3.0,70,0.00,,,0.07,0,Wunderground v.1.15,2013-03-08 01:26:00,
2013-03-07 19:31:00,25.7,17.3,30.45,ESE,108,0.0,2.0,70,0.00,,,0.07,0,Wunderground v.1.15,2013-03-08 01:31:00,
2013-03-07 19:36:00,25.3,17.2,30.45,ESE,108,0.0,2.0,71,0.00,,,0.07,0,Wunderground v.1.15,2013-03-08 01:36:00,
2013-03-07 19:41:00,24.9,17.1,30.45,ESE,108,0.0,0.0,72,0.00,,,0.07,0,Wunderground v.1.15,2013-03-08 01:41:00,
2013-03-07 19:46:00,24.5,16.8,30.45,ESE,108,0.0,0.0,72,0.00,,,0.07,0,Wunderground v.1.15,2013-03-08 01:46:00,
2013-03-07 19:51:00,23.9,16.2,30.45,ESE,108,0.0,0.0,72,0.00,,,0.07,0,Wunderground v.1.15,2013-03-08 01:51:00,
2013-03-07 19:56:00,23.4,16.0,30.46,ESE,108,0.0,0.0,73,0.00,,,0.07,0,Wunderground v.1.15,2013-03-08 01:56:00,
2013-03-07 20:01:00,22.8,15.4,30.46,ESE,108,0.0,0.0,73,0.00,,,0.07,0,Wunderground v.1.15,2013-03-08 02:01:00,
2013-03-07 20:06:00,22.4,15.4,30.45,ESE,108,0.0,0.0,74,0.00,,,0.07,0,Wunderground v.1.15,2013-03-08 02:06:00,
2013-03-07 20:11:00,22.1,15.4,30.46,ESE,108,0.0,0.0,75,0.00,,,0.07,0,Wunderground v.1.15,2013-03-08 02:11:00,
2013-03-07 20:16:00,21.7,15.3,30.46,ESE,108,0.0,0.0,76,0.00,,,0.07,0,Wunderground v.1.15,2013-03-08 02:16:00,
2013-03-07 20:21:00,21.4,15.0,30.45,ESE,108,0.0,0.0,76,0.00,,,0.07,0,Wunderground v.1.15,2013-03-08 02:21:00,
2013-03-07 20:26:00,20.9,14.5,30.46,ESE,108,0.0,0.0,76,0.00,,,0.07,0,Wunderground v.1.15,2013-03-08 02:26:00,
2013-03-07 20:31:00,20.7,14.9,30.45,ESE,108,0.0,0.0,78,0.00,,,0.07,0,Wunderground v.1.15,2013-03-08 02:31:00,
2013-03-07 20:37:00,20.6,14.8,30.45,ESE,108,0.0,0.0,78,0.00,,,0.07,0,Wunderground v.1.15,2013-03-08 02:37:00,
2013-03-07 20:42:00,20.3,14.5,30.46,ESE,108,0.0,0.0,78,0.00,,,0.07,0,Wunderground v.1.15,2013-03-08 02:42:00,
2013-03-07 20:47:00,20.0,14.5,30.45,ESE,108,0.0,0.0,79,0.00,,,0.07,0,Wunderground v.1.15,2013-03-08 02:47:00,
2013-03-07 20:52:00,19.7,14.2,30.46,ESE,108,0.0,0.0,79,0.00,,,0.07,0,Wunderground v.1.15,2013-03-08 02:52:00,
2013-03-07 20:57:00,19.4,13.9,30.46,ESE,108,0.0,0.0,79,0.00,,,0.07,0,Wunderground v.1.15,2013-03-08 02:57:00,
2013-03-07 21:02:00,19.2,14.0,30.46,ESE,108,0.0,0.0,80,0.00,,,0.07,0,Wunderground v.1.15,2013-03-08 03:02:00,
2013-03-07 21:07:00,19.0,13.8,30.46,ESE,108,0.0,0.0,80,0.00,,,0.07,0,Wunderground v.1.15,2013-03-08 03:07:00,
2013-03-07 21:12:00,18.8,13.9,30.46,ESE,108,0.0,0.0,81,0.00,,,0.07,0,Wunderground v.1.15,2013-03-08 03:12:00,
2013-03-07 21:17:00,18.7,13.8,30.46,ESE,108,0.0,0.0,81,0.00,,,0.07,0,Wunderground v.1.15,2013-03-08 03:17:00,
2013-03-07 21:22:00,18.4,13.5,30.46,ESE,108,0.0,0.0,81,0.00,,,0.07,0,Wunderground v.1.15,2013-03-08 03:22:00,
2013-03-07 21:27:00,17.8,12.7,30.46,ESE,108,0.0,0.0,80,0.00,,,0.07,0,Wunderground v.1.15,2013-03-08 03:27:00,
2013-03-07 21:32:00,17.3,12.5,30.46,ESE,108,0.0,0.0,81,0.00,,,0.07,0,Wunderground v.1.15,2013-03-08 03:32:00,
2013-03-07 21:37:00,17.0,12.5,30.46,ESE,108,0.0,0.0,82,0.00,,,0.07,0,Wunderground v.1.15,2013-03-08 03:37:00,
2013-03-07 21:42:00,16.8,12.3,30.46,ESE,108,0.0,0.0,82,0.00,,,0.07,0,Wunderground v.1.15,2013-03-08 03:42:00,
2013-03-07 21:47:00,16.6,12.1,30.46,ESE,108,0.0,0.0,82,0.00,,,0.07,0,Wunderground v.1.15,2013-03-08 03:47:00,
2013-03-07 21:52:00,16.4,12.1,30.46,ESE,108,0.0,0.0,83,0.00,,,0.07,0,Wunderground v.1.15,2013-03-08 03:52:00,
2013-03-07 21:57:00,16.1,11.6,30.46,ESE,108,0.0,0.0,82,0.00,,,0.07,0,Wunderground v.1.15,2013-03-08 03:57:00,
2013-03-07 22:02:00,15.7,11.2,30.46,ESE,108,0.0,0.0,82,0.00,,,0.07,0,Wunderground v.1.15,2013-03-08 04:02:00,
2013-03-07 22:07:00,15.5,11.3,30.46,ESE,108,0.0,0.0,83,0.00,,,0.07,0,Wunderground v.1.15,2013-03-08 04:07:00,
2013-03-07 22:12:00,15.6,11.9,30.46,ESE,108,0.0,0.0,85,0.00,,,0.07,0,Wunderground v.1.15,2013-03-08 04:12:00,
2013-03-07 22:17:00,15.6,11.9,30.46,ESE,108,0.0,0.0,85,0.00,,,0.07,0,Wunderground v.1.15,2013-03-08 04:17:00,
2013-03-07 22:22:00,15.5,11.5,30.46,ESE,108,0.0,0.0,84,0.00,,,0.07,0,Wunderground v.1.15,2013-03-08 04:22:00,
2013-03-07 22:27:00,15.1,11.1,30.46,ESE,108,0.0,0.0,84,0.00,,,0.07,0,Wunderground v.1.15,2013-03-08 04:27:00,
2013-03-07 22:32:00,14.8,10.8,30.46,ESE,108,0.0,0.0,84,0.00,,,0.07,0,Wunderground v.1.15,2013-03-08 04:32:00,
2013-03-07 22:37:00,14.6,10.9,30.46,ESE,108,0.0,0.0,85,0.00,,,0.07,0,Wunderground v.1.15,2013-03-08 04:37:00,
2013-03-07 22:42:00,14.5,10.8,30.46,ESE,108,0.0,0.0,85,0.00,,,0.07,0,Wunderground v.1.15,2013-03-08 04:42:00,
2013-03-07 22:47:00,14.5,10.8,30.46,ESE,108,0.0,0.0,85,0.00,,,0.07,0,Wunderground v.1.15,2013-03-08 04:47:00,
2013-03-07 22:52:00,14.4,11.0,30.46,ESE,108,0.0,0.0,86,0.00,,,0.07,0,Wunderground v.1.15,2013-03-08 04:52:00,
2013-03-07 22:57:00,14.3,10.9,30.45,ESE,108,0.0,0.0,86,0.00,,,0.07,0,Wunderground v.1.15,2013-03-08 04:57:00,
2013-03-07 23:00:00,14.2,10.8,30.45,ESE,108,0.0,0.0,86,0.00,,,0.07,0,Wunderground v.1.15,2013-03-08 05:00:00,
2013-03-07 23:01:00,14.2,10.8,30.45,ESE,108,1.0,1.0,86,0.00,,,0.07,0,Wunderground v.1.15,2013-03-08 05:01:00,
2013-03-07 23:06:00,14.2,10.8,30.45,ESE,108,2.0,2.0,86,0.00,,,0.07,0,Wunderground v.1.15,2013-03-08 05:06:00,
2013-03-07 23:11:00,14.2,10.8,30.45,ESE,108,0.0,0.0,86,0.00,,,0.07,0,Wunderground v.1.15,2013-03-08 05:11:00,
2013-03-07 23:16:00,14.8,11.9,30.45,ESE,108,2.0,3.0,88,0.00,,,0.07,0,Wunderground v.1.15,2013-03-08 05:16:00,
2013-03-07 23:21:00,16.0,13.6,30.45,ESE,108,0.0,2.0,90,0.00,,,0.07,0,Wunderground v.1.15,2013-03-08 05:21:00,
2013-03-07 23:26:00,16.6,13.9,30.45,ESE,108,0.0,2.0,89,0.00,,,0.07,0,Wunderground v.1.15,2013-03-08 05:26:00,
2013-03-07 23:31:00,16.8,13.9,30.45,ESE,108,0.0,0.0,88,0.00,,,0.07,0,Wunderground v.1.15,2013-03-08 05:31:00,
2013-03-07 23:36:00,17.1,14.2,30.45,ESE,108,0.0,0.0,88,0.00,,,0.07,0,Wunderground v.1.15,2013-03-08 05:36:00,
2013-03-07 23:41:00,17.3,14.4,30.45,ESE,108,0.0,0.0,88,0.00,,,0.07,0,Wunderground v.1.15,2013-03-08 05:41:00,
2013-03-07 23:46:00,17.3,14.1,30.46,ESE,108,0.0,0.0,87,0.00,,,0.07,0,Wunderground v.1.15,2013-03-08 05:46:00,
2013-03-07 23:51:00,17.2,14.0,30.46,ESE,108,0.0,0.0,87,0.00,,,0.07,0,Wunderground v.1.15,2013-03-08 05:51:00,
2013-03-07 23:56:00,17.1,13.9,30.47,ESE,108,0.0,0.0,87,0.00,,,0.07,0,Wunderground v.1.15,2013-03-08 05:56:00,